sensor_id;sensor_type;location;lat;lon;timestamp;pressure;altitude;pressure_sealevel;temperature;humidity
19508;BME280;40157;42.566;27.526;2023-02-19T00:01:16;101110.22;;;12.63;49.42
19508;BME280;40157;42.566;27.526;2023-02-19T00:03:17;101108.47;;;12.64;49.32
19508;BME280;40157;42.566;27.526;2023-02-19T00:05:17;101110.28;;;12.66;49.43
19508;BME280;40157;42.566;27.526;2023-02-19T00:07:18;101099.56;;;12.54;49.64
19508;BME280;40157;42.566;27.526;2023-02-19T00:09:18;101102.19;;;12.54;49.77
19508;BME280;40157;42.566;27.526;2023-02-19T00:11:21;101114.53;;;12.58;49.81
19508;BME280;40157;42.566;27.526;2023-02-19T00:13:22;101103.84;;;12.47;50.21
19508;BME280;40157;42.566;27.526;2023-02-19T00:15:22;101100.97;;;12.30;50.85
19508;BME280;40157;42.566;27.526;2023-02-19T00:17:32;101087.50;;;12.09;51.06
19508;BME280;40157;42.566;27.526;2023-02-19T00:19:34;101085.94;;;12.20;51.39
19508;BME280;40157;42.566;27.526;2023-02-19T00:21:34;101052.44;;;12.07;51.39
19508;BME280;40157;42.566;27.526;2023-02-19T00:23:35;101063.78;;;12.04;51.54
19508;BME280;40157;42.566;27.526;2023-02-19T00:25:36;101078.88;;;12.19;51.56
19508;BME280;40157;42.566;27.526;2023-02-19T00:27:37;101064.78;;;12.14;51.70
19508;BME280;40157;42.566;27.526;2023-02-19T00:29:37;101065.69;;;12.13;51.95
19508;BME280;40157;42.566;27.526;2023-02-19T00:31:38;101069.97;;;12.08;52.00
19508;BME280;40157;42.566;27.526;2023-02-19T00:33:39;101055.91;;;12.06;51.91
19508;BME280;40157;42.566;27.526;2023-02-19T00:35:40;101068.31;;;12.13;51.76
19508;BME280;40157;42.566;27.526;2023-02-19T00:37:40;101067.38;;;12.09;51.96
19508;BME280;40157;42.566;27.526;2023-02-19T00:39:40;101058.56;;;12.07;52.07
19508;BME280;40157;42.566;27.526;2023-02-19T00:41:41;101048.00;;;12.02;52.11
19508;BME280;40157;42.566;27.526;2023-02-19T00:43:41;101024.84;;;11.81;52.23
19508;BME280;40157;42.566;27.526;2023-02-19T00:45:42;101057.69;;;12.07;51.99
19508;BME280;40157;42.566;27.526;2023-02-19T00:47:42;101045.28;;;11.96;52.06
19508;BME280;40157;42.566;27.526;2023-02-19T00:49:43;101011.69;;;11.80;52.01
19508;BME280;40157;42.566;27.526;2023-02-19T00:51:44;101029.38;;;11.90;51.90
19508;BME280;40157;42.566;27.526;2023-02-19T00:53:44;101057.56;;;11.97;52.33
19508;BME280;40157;42.566;27.526;2023-02-19T00:55:45;101047.06;;;12.00;52.10
19508;BME280;40157;42.566;27.526;2023-02-19T00:57:45;101046.22;;;12.01;52.26
19508;BME280;40157;42.566;27.526;2023-02-19T00:59:46;101031.19;;;11.91;52.09
19508;BME280;40157;42.566;27.526;2023-02-19T01:01:46;101020.44;;;11.79;52.65
19508;BME280;40157;42.566;27.526;2023-02-19T01:03:47;101003.69;;;11.72;52.91
19508;BME280;40157;42.566;27.526;2023-02-19T01:05:48;101011.47;;;11.64;52.87
19508;BME280;40157;42.566;27.526;2023-02-19T01:07:49;101020.34;;;11.73;52.86
19508;BME280;40157;42.566;27.526;2023-02-19T01:09:49;101021.38;;;11.82;52.92
19508;BME280;40157;42.566;27.526;2023-02-19T01:11:50;100996.75;;;11.77;52.95
19508;BME280;40157;42.566;27.526;2023-02-19T01:13:50;101004.72;;;11.82;52.97
19508;BME280;40157;42.566;27.526;2023-02-19T01:15:51;101011.75;;;11.83;53.12
19508;BME280;40157;42.566;27.526;2023-02-19T01:17:51;101001.09;;;11.74;53.41
19508;BME280;40157;42.566;27.526;2023-02-19T01:19:52;100993.91;;;11.63;53.62
19508;BME280;40157;42.566;27.526;2023-02-19T01:21:52;101014.16;;;11.71;53.68
19508;BME280;40157;42.566;27.526;2023-02-19T01:23:53;101012.41;;;11.70;53.81
19508;BME280;40157;42.566;27.526;2023-02-19T01:25:54;101011.47;;;11.64;53.89
19508;BME280;40157;42.566;27.526;2023-02-19T01:27:54;101002.47;;;11.50;53.96
19508;BME280;40157;42.566;27.526;2023-02-19T01:29:55;101006.06;;;11.57;53.92
19508;BME280;40157;42.566;27.526;2023-02-19T01:31:55;101013.19;;;11.62;53.65
19508;BME280;40157;42.566;27.526;2023-02-19T01:34:00;101015.69;;;11.56;53.64
19508;BME280;40157;42.566;27.526;2023-02-19T01:36:03;101001.53;;;11.46;54.12
19508;BME280;40157;42.566;27.526;2023-02-19T01:38:03;100994.34;;;11.36;54.25
19508;BME280;40157;42.566;27.526;2023-02-19T01:40:04;100981.16;;;11.32;54.26
19508;BME280;40157;42.566;27.526;2023-02-19T01:42:09;100973.22;;;11.28;54.51
19508;BME280;40157;42.566;27.526;2023-02-19T01:46:17;100929.78;;;10.96;54.18
19508;BME280;40157;42.566;27.526;2023-02-19T01:48:32;100968.72;;;11.21;53.94
19508;BME280;40157;42.566;27.526;2023-02-19T01:50:43;100982.88;;;11.29;53.75
19508;BME280;40157;42.566;27.526;2023-02-19T01:52:45;100986.41;;;11.32;53.61
19508;BME280;40157;42.566;27.526;2023-02-19T01:54:46;100996.91;;;11.32;53.54
19508;BME280;40157;42.566;27.526;2023-02-19T01:56:48;100971.41;;;11.24;53.41
19508;BME280;40157;42.566;27.526;2023-02-19T01:58:49;101002.25;;;11.38;53.47
19508;BME280;40157;42.566;27.526;2023-02-19T02:00:50;100977.56;;;11.26;53.53
19508;BME280;40157;42.566;27.526;2023-02-19T02:02:53;100975.78;;;11.25;53.21
19508;BME280;40157;42.566;27.526;2023-02-19T02:04:56;100981.16;;;11.32;53.67
19508;BME280;40157;42.566;27.526;2023-02-19T02:07:00;100882.13;;;10.69;53.85
19508;BME280;40157;42.566;27.526;2023-02-19T02:09:01;100932.56;;;11.05;53.67
19508;BME280;40157;42.566;27.526;2023-02-19T02:11:21;100975.84;;;11.28;53.93
19508;BME280;40157;42.566;27.526;2023-02-19T02:13:21;100987.16;;;11.24;54.25
19508;BME280;40157;42.566;27.526;2023-02-19T02:15:24;100977.63;;;11.29;54.04
19508;BME280;40157;42.566;27.526;2023-02-19T02:22:36;100981.09;;;11.28;54.26
19508;BME280;40157;42.566;27.526;2023-02-19T02:29:25;100979.28;;;11.24;54.29
19508;BME280;40157;42.566;27.526;2023-02-19T02:31:37;100983.75;;;11.30;54.22
19508;BME280;40157;42.566;27.526;2023-02-19T02:36:28;100989.88;;;11.30;54.16
19508;BME280;40157;42.566;27.526;2023-02-19T02:38:32;100978.31;;;11.19;54.10
19508;BME280;40157;42.566;27.526;2023-02-19T02:40:34;100989.84;;;11.27;54.48
19508;BME280;40157;42.566;27.526;2023-02-19T02:42:37;100993.44;;;11.33;53.99
19508;BME280;40157;42.566;27.526;2023-02-19T02:44:39;100988.19;;;11.33;54.00
19508;BME280;40157;42.566;27.526;2023-02-19T02:46:41;100975.81;;;11.27;53.85
19508;BME280;40157;42.566;27.526;2023-02-19T02:48:48;100989.19;;;11.41;53.56
19508;BME280;40157;42.566;27.526;2023-02-19T02:51:06;100989.13;;;11.38;53.85
19508;BME280;40157;42.566;27.526;2023-02-19T02:53:48;100991.78;;;11.39;54.02
19508;BME280;40157;42.566;27.526;2023-02-19T02:56:09;100989.00;;;11.30;54.29
19508;BME280;40157;42.566;27.526;2023-02-19T02:58:13;100984.22;;;11.09;54.72
19508;BME280;40157;42.566;27.526;2023-02-19T03:00:14;100987.06;;;11.20;54.46
19508;BME280;40157;42.566;27.526;2023-02-19T03:02:17;100983.44;;;11.13;54.59
19508;BME280;40157;42.566;27.526;2023-02-19T03:04:26;100985.22;;;11.16;54.69
19508;BME280;40157;42.566;27.526;2023-02-19T03:06:30;100937.44;;;10.83;54.85
19508;BME280;40157;42.566;27.526;2023-02-19T03:08:37;101003.47;;;11.08;55.05
19508;BME280;40157;42.566;27.526;2023-02-19T03:10:44;100996.16;;;10.91;55.46
19508;BME280;40157;42.566;27.526;2023-02-19T03:12:50;100976.72;;;10.80;55.28
19508;BME280;40157;42.566;27.526;2023-02-19T03:15:11;100973.00;;;10.69;55.57
19508;BME280;40157;42.566;27.526;2023-02-19T03:17:55;101002.88;;;10.77;55.75
19508;BME280;40157;42.566;27.526;2023-02-19T03:20:15;101001.06;;;10.73;56.26
19508;BME280;40157;42.566;27.526;2023-02-19T03:22:30;101001.81;;;10.67;56.40
19508;BME280;40157;42.566;27.526;2023-02-19T03:24:33;101002.41;;;10.54;56.86
19508;BME280;40157;42.566;27.526;2023-02-19T03:26:56;101015.75;;;10.65;56.71
19508;BME280;40157;42.566;27.526;2023-02-19T03:28:59;101020.97;;;10.63;56.43
19508;BME280;40157;42.566;27.526;2023-02-19T03:31:21;101020.94;;;10.62;56.76
19508;BME280;40157;42.566;27.526;2023-02-19T03:33:27;101003.84;;;10.38;57.27
19508;BME280;40157;42.566;27.526;2023-02-19T03:35:39;101021.53;;;10.48;57.23
19508;BME280;40157;42.566;27.526;2023-02-19T03:37:45;101033.88;;;10.52;57.23
19508;BME280;40157;42.566;27.526;2023-02-19T03:39:46;101009.81;;;10.32;57.46
19508;BME280;40157;42.566;27.526;2023-02-19T03:44:16;101016.91;;;10.36;57.44
19508;BME280;40157;42.566;27.526;2023-02-19T03:46:24;101036.09;;;10.35;57.30
19508;BME280;40157;42.566;27.526;2023-02-19T03:48:34;101049.31;;;10.40;57.72
19508;BME280;40157;42.566;27.526;2023-02-19T03:50:49;101037.75;;;10.32;57.50
19508;BME280;40157;42.566;27.526;2023-02-19T03:53:23;101064.13;;;10.38;57.81
19508;BME280;40157;42.566;27.526;2023-02-19T03:57:50;101041.19;;;10.29;57.92
19508;BME280;40157;42.566;27.526;2023-02-19T03:59:58;101025.31;;;10.23;57.97
19508;BME280;40157;42.566;27.526;2023-02-19T04:02:10;101043.78;;;10.28;58.20
19508;BME280;40157;42.566;27.526;2023-02-19T04:04:25;101019.84;;;10.14;58.18
19508;BME280;40157;42.566;27.526;2023-02-19T04:06:30;101035.66;;;10.17;58.58
19508;BME280;40157;42.566;27.526;2023-02-19T04:08:33;101038.53;;;10.28;58.06
19508;BME280;40157;42.566;27.526;2023-02-19T04:10:35;101030.34;;;10.14;58.07
19508;BME280;40157;42.566;27.526;2023-02-19T04:12:39;101039.25;;;10.22;58.53
19508;BME280;40157;42.566;27.526;2023-02-19T04:14:45;100995.97;;;10.00;58.25
19508;BME280;40157;42.566;27.526;2023-02-19T04:16:52;101057.47;;;10.16;58.61
19508;BME280;40157;42.566;27.526;2023-02-19T04:19:02;101041.50;;;10.05;58.98
19508;BME280;40157;42.566;27.526;2023-02-19T04:21:06;101048.44;;;10.03;58.98
19508;BME280;40157;42.566;27.526;2023-02-19T04:23:08;101057.44;;;10.14;59.03
19508;BME280;40157;42.566;27.526;2023-02-19T04:25:08;101053.84;;;10.09;59.01
19508;BME280;40157;42.566;27.526;2023-02-19T04:27:09;101038.75;;;10.00;59.39
19508;BME280;40157;42.566;27.526;2023-02-19T04:29:10;101031.00;;;10.05;59.38
19508;BME280;40157;42.566;27.526;2023-02-19T04:31:11;101012.44;;;9.94;59.62
19508;BME280;40157;42.566;27.526;2023-02-19T04:33:11;101038.22;;;10.15;59.63
19508;BME280;40157;42.566;27.526;2023-02-19T04:35:12;101027.75;;;10.15;59.70
19508;BME280;40157;42.566;27.526;2023-02-19T04:37:12;101031.16;;;10.11;59.53
19508;BME280;40157;42.566;27.526;2023-02-19T04:39:13;101045.09;;;10.10;59.77
19508;BME280;40157;42.566;27.526;2023-02-19T04:41:14;101022.78;;;9.88;59.81
19508;BME280;40157;42.566;27.526;2023-02-19T04:43:14;101060.66;;;10.04;59.86
19508;BME280;40157;42.566;27.526;2023-02-19T04:45:15;101057.84;;;9.95;60.35
19508;BME280;40157;42.566;27.526;2023-02-19T04:47:15;101077.97;;;9.96;60.70
19508;BME280;40157;42.566;27.526;2023-02-19T04:49:16;101054.88;;;9.79;61.36
19508;BME280;40157;42.566;27.526;2023-02-19T04:51:17;101087.41;;;9.89;61.73
19508;BME280;40157;42.566;27.526;2023-02-19T04:53:17;101085.41;;;9.80;62.10
19508;BME280;40157;42.566;27.526;2023-02-19T04:55:18;101074.84;;;9.76;61.98
19508;BME280;40157;42.566;27.526;2023-02-19T04:57:18;101080.09;;;9.77;61.92
19508;BME280;40157;42.566;27.526;2023-02-19T04:59:19;101079.34;;;9.81;61.68
19508;BME280;40157;42.566;27.526;2023-02-19T05:01:19;101100.59;;;9.94;61.39
19508;BME280;40157;42.566;27.526;2023-02-19T05:03:20;101063.22;;;9.65;61.70
19508;BME280;40157;42.566;27.526;2023-02-19T05:05:20;101087.91;;;9.74;62.22
19508;BME280;40157;42.566;27.526;2023-02-19T05:07:20;101070.25;;;9.67;62.62
19508;BME280;40157;42.566;27.526;2023-02-19T05:09:21;101097.59;;;9.78;62.82
19508;BME280;40157;42.566;27.526;2023-02-19T05:11:22;101049.19;;;9.61;62.34
19508;BME280;40157;42.566;27.526;2023-02-19T05:13:23;101058.59;;;9.56;62.58
19508;BME280;40157;42.566;27.526;2023-02-19T05:15:23;101070.41;;;9.73;62.67
19508;BME280;40157;42.566;27.526;2023-02-19T05:17:24;101084.75;;;9.88;62.54
19508;BME280;40157;42.566;27.526;2023-02-19T05:19:24;101086.28;;;9.79;62.69
19508;BME280;40157;42.566;27.526;2023-02-19T05:21:25;101047.22;;;9.54;62.52
19508;BME280;40157;42.566;27.526;2023-02-19T05:23:26;101068.59;;;9.71;62.92
19508;BME280;40157;42.566;27.526;2023-02-19T05:25:27;101088.03;;;9.80;63.18
19508;BME280;40157;42.566;27.526;2023-02-19T05:27:29;101079.25;;;9.78;63.15
19508;BME280;40157;42.566;27.526;2023-02-19T05:29:30;101095.22;;;9.88;63.58
19508;BME280;40157;42.566;27.526;2023-02-19T05:31:31;101068.53;;;10.03;69.57
19508;BME280;40157;42.566;27.526;2023-02-19T05:33:33;100962.28;;;9.39;67.18
19508;BME280;40157;42.566;27.526;2023-02-19T05:35:39;101067.84;;;10.11;66.04
19508;BME280;40157;42.566;27.526;2023-02-19T05:37:41;101041.22;;;9.93;65.20
19508;BME280;40157;42.566;27.526;2023-02-19T05:39:41;101073.34;;;10.24;65.03
19508;BME280;40157;42.566;27.526;2023-02-19T05:41:42;101021.94;;;9.91;65.27
19508;BME280;40157;42.566;27.526;2023-02-19T05:43:43;101060.06;;;10.14;65.87
19508;BME280;40157;42.566;27.526;2023-02-19T05:45:44;101061.06;;;10.19;65.94
19508;BME280;40157;42.566;27.526;2023-02-19T05:47:45;101053.06;;;10.15;65.92
19508;BME280;40157;42.566;27.526;2023-02-19T05:49:45;101089.69;;;10.48;65.94
19508;BME280;40157;42.566;27.526;2023-02-19T05:51:49;101055.13;;;10.28;65.61
19508;BME280;40157;42.566;27.526;2023-02-19T05:53:50;101118.13;;;10.69;65.66
19508;BME280;40157;42.566;27.526;2023-02-19T05:55:50;101094.44;;;10.66;65.61
19508;BME280;40157;42.566;27.526;2023-02-19T05:57:50;101121.88;;;10.82;65.50
19508;BME280;40157;42.566;27.526;2023-02-19T05:59:51;101119.34;;;10.87;65.04
19508;BME280;40157;42.566;27.526;2023-02-19T06:01:53;101128.59;;;11.10;65.26
19508;BME280;40157;42.566;27.526;2023-02-19T06:03:54;101136.69;;;11.21;65.08
19508;BME280;40157;42.566;27.526;2023-02-19T06:05:54;101141.31;;;11.33;63.63
19508;BME280;40157;42.566;27.526;2023-02-19T06:07:55;101142.41;;;11.44;63.23
19508;BME280;40157;42.566;27.526;2023-02-19T06:09:55;101136.28;;;11.45;63.07
19508;BME280;40157;42.566;27.526;2023-02-19T06:11:56;101138.09;;;11.48;63.28
19508;BME280;40157;42.566;27.526;2023-02-19T06:13:59;101145.91;;;11.45;63.13
19508;BME280;40157;42.566;27.526;2023-02-19T06:16:03;101124.69;;;11.33;63.63
19508;BME280;40157;42.566;27.526;2023-02-19T06:18:04;101122.81;;;11.28;63.92
19508;BME280;40157;42.566;27.526;2023-02-19T06:20:05;101122.69;;;11.22;64.40
19508;BME280;40157;42.566;27.526;2023-02-19T06:22:05;101143.06;;;11.33;64.71
19508;BME280;40157;42.566;27.526;2023-02-19T06:24:07;101148.22;;;11.29;64.90
19508;BME280;40157;42.566;27.526;2023-02-19T06:26:19;101156.03;;;11.26;65.42
19508;BME280;40157;42.566;27.526;2023-02-19T06:28:20;101113.75;;;11.11;65.65
19508;BME280;40157;42.566;27.526;2023-02-19T06:30:21;101131.44;;;11.21;65.55
19508;BME280;40157;42.566;27.526;2023-02-19T06:32:21;101152.56;;;11.27;65.80
19508;BME280;40157;42.566;27.526;2023-02-19T06:34:22;101131.34;;;11.17;65.81
19508;BME280;40157;42.566;27.526;2023-02-19T06:36:23;101159.50;;;11.25;65.61
19508;BME280;40157;42.566;27.526;2023-02-19T06:38:24;101110.19;;;11.09;65.48
19508;BME280;40157;42.566;27.526;2023-02-19T06:40:25;101158.06;;;11.40;65.38
19508;BME280;40157;42.566;27.526;2023-02-19T06:42:25;101157.22;;;11.41;65.39
19508;BME280;40157;42.566;27.526;2023-02-19T06:44:26;101153.69;;;11.40;65.30
19508;BME280;40157;42.566;27.526;2023-02-19T06:46:26;101156.63;;;11.57;65.21
19508;BME280;40157;42.566;27.526;2023-02-19T06:48:28;101152.34;;;11.61;64.98
19508;BME280;40157;42.566;27.526;2023-02-19T06:50:29;101156.75;;;11.63;64.80
19508;BME280;40157;42.566;27.526;2023-02-19T06:52:29;101153.28;;;11.64;65.27
19508;BME280;40157;42.566;27.526;2023-02-19T06:54:30;101113.47;;;11.41;65.35
19508;BME280;40157;42.566;27.526;2023-02-19T06:56:33;101155.00;;;11.62;65.31
19508;BME280;40157;42.566;27.526;2023-02-19T06:58:34;101167.50;;;11.76;65.19
19508;BME280;40157;42.566;27.526;2023-02-19T07:00:35;101172.78;;;11.79;65.24
19508;BME280;40157;42.566;27.526;2023-02-19T07:02:35;101179.94;;;11.86;65.19
19508;BME280;40157;42.566;27.526;2023-02-19T07:04:36;101164.13;;;11.83;65.08
19508;BME280;40157;42.566;27.526;2023-02-19T07:06:36;101179.28;;;11.96;65.06
19508;BME280;40157;42.566;27.526;2023-02-19T07:08:37;101175.81;;;11.97;64.60
19508;BME280;40157;42.566;27.526;2023-02-19T07:10:37;101167.03;;;11.97;64.24
19508;BME280;40157;42.566;27.526;2023-02-19T07:12:38;101181.16;;;12.03;63.95
19508;BME280;40157;42.566;27.526;2023-02-19T07:14:38;101180.38;;;12.08;63.69
19508;BME280;40157;42.566;27.526;2023-02-19T07:16:39;101185.69;;;12.14;63.78
19508;BME280;40157;42.566;27.526;2023-02-19T07:18:40;101185.84;;;12.21;63.73
19508;BME280;40157;42.566;27.526;2023-02-19T07:20:40;101187.53;;;12.18;63.60
19508;BME280;40157;42.566;27.526;2023-02-19T07:22:40;101197.41;;;12.31;63.63
19508;BME280;40157;42.566;27.526;2023-02-19T07:24:41;101206.28;;;12.38;63.43
19508;BME280;40157;42.566;27.526;2023-02-19T07:26:41;101223.09;;;12.48;63.31
19508;BME280;40157;42.566;27.526;2023-02-19T07:28:51;101212.69;;;12.57;63.15
19508;BME280;40157;42.566;27.526;2023-02-19T07:30:52;101213.66;;;12.62;63.06
19508;BME280;40157;42.566;27.526;2023-02-19T07:32:52;101213.84;;;12.73;63.13
19508;BME280;40157;42.566;27.526;2023-02-19T07:34:53;101220.97;;;12.82;62.95
19508;BME280;40157;42.566;27.526;2023-02-19T07:36:53;101207.00;;;12.84;62.87
19508;BME280;40157;42.566;27.526;2023-02-19T07:38:58;101217.66;;;12.93;62.79
19508;BME280;40157;42.566;27.526;2023-02-19T07:41:00;101221.31;;;13.05;62.49
19508;BME280;40157;42.566;27.526;2023-02-19T07:43:01;101216.94;;;13.05;62.41
19508;BME280;40157;42.566;27.526;2023-02-19T07:45:02;101177.28;;;12.93;62.69
19508;BME280;40157;42.566;27.526;2023-02-19T07:47:02;101202.16;;;13.15;62.08
19508;BME280;40157;42.566;27.526;2023-02-19T07:49:03;101216.47;;;13.32;61.66
19508;BME280;40157;42.566;27.526;2023-02-19T07:51:04;101217.47;;;13.45;60.70
19508;BME280;40157;42.566;27.526;2023-02-19T07:53:06;101214.13;;;13.56;59.86
19508;BME280;40157;42.566;27.526;2023-02-19T07:55:06;101207.06;;;13.55;58.76
19508;BME280;40157;42.566;27.526;2023-02-19T07:57:07;101203.75;;;13.71;58.53
19508;BME280;40157;42.566;27.526;2023-02-19T07:59:07;101186.16;;;13.72;58.07
19508;BME280;40157;42.566;27.526;2023-02-19T08:01:11;101159.72;;;13.61;58.06
19508;BME280;40157;42.566;27.526;2023-02-19T08:03:12;101165.16;;;13.76;57.53
19508;BME280;40157;42.566;27.526;2023-02-19T08:05:13;101182.00;;;13.91;55.88
19508;BME280;40157;42.566;27.526;2023-02-19T08:07:13;101169.66;;;13.90;55.79
19508;BME280;40157;42.566;27.526;2023-02-19T08:09:14;101185.59;;;14.02;54.79
19508;BME280;40157;42.566;27.526;2023-02-19T08:11:14;101194.38;;;14.01;54.29
19508;BME280;40157;42.566;27.526;2023-02-19T08:13:33;101158.34;;;14.00;54.34
19508;BME280;40157;42.566;27.526;2023-02-19T08:15:34;101183.97;;;14.16;55.45
19508;BME280;40157;42.566;27.526;2023-02-19T08:17:34;101170.78;;;14.15;54.77
19508;BME280;40157;42.566;27.526;2023-02-19T08:19:34;101193.66;;;14.17;54.18
19508;BME280;40157;42.566;27.526;2023-02-19T08:21:35;101174.41;;;14.28;54.13
19508;BME280;40157;42.566;27.526;2023-02-19T08:23:35;101202.69;;;14.44;53.51
19508;BME280;40157;42.566;27.526;2023-02-19T08:25:36;101173.63;;;14.39;53.18
19508;BME280;40157;42.566;27.526;2023-02-19T08:27:37;101179.88;;;14.55;53.26
19508;BME280;40157;42.566;27.526;2023-02-19T08:29:37;101187.06;;;14.72;52.09
19508;BME280;40157;42.566;27.526;2023-02-19T08:31:38;101183.59;;;14.79;51.83
19508;BME280;40157;42.566;27.526;2023-02-19T08:33:39;101195.03;;;14.79;51.93
19508;BME280;40157;42.566;27.526;2023-02-19T08:35:40;101207.44;;;14.93;52.46
19508;BME280;40157;42.566;27.526;2023-02-19T08:37:42;101201.28;;;14.97;52.63
19508;BME280;40157;42.566;27.526;2023-02-19T08:39:42;101180.19;;;14.95;52.81
19508;BME280;40157;42.566;27.526;2023-02-19T08:41:42;101166.06;;;14.93;51.00
19508;BME280;40157;42.566;27.526;2023-02-19T08:43:43;101176.72;;;15.15;50.38
19508;BME280;40157;42.566;27.526;2023-02-19T08:45:44;101188.28;;;15.35;50.40
19508;BME280;40157;42.566;27.526;2023-02-19T08:47:46;101194.47;;;15.47;49.39
19508;BME280;40157;42.566;27.526;2023-02-19T08:49:47;101181.31;;;15.56;48.99
19508;BME280;40157;42.566;27.526;2023-02-19T08:51:47;101182.22;;;15.70;48.44
19508;BME280;40157;42.566;27.526;2023-02-19T08:53:48;101178.75;;;15.81;48.41
19508;BME280;40157;42.566;27.526;2023-02-19T08:55:48;101175.25;;;15.94;48.35
19508;BME280;40157;42.566;27.526;2023-02-19T08:57:49;101166.44;;;16.07;47.94
19508;BME280;40157;42.566;27.526;2023-02-19T08:59:49;101174.38;;;16.17;47.52
19508;BME280;40157;42.566;27.526;2023-02-19T09:01:50;101171.75;;;16.32;46.78
19508;BME280;40157;42.566;27.526;2023-02-19T09:03:52;101172.63;;;16.39;46.05
19508;BME280;40157;42.566;27.526;2023-02-19T09:05:52;101162.91;;;16.45;45.51
19508;BME280;40157;42.566;27.526;2023-02-19T09:07:53;101163.75;;;16.58;45.37
19508;BME280;40157;42.566;27.526;2023-02-19T09:09:53;101177.00;;;16.72;45.20
19508;BME280;40157;42.566;27.526;2023-02-19T09:11:54;101165.50;;;16.75;44.34
19508;BME280;40157;42.566;27.526;2023-02-19T09:13:55;101176.06;;;16.93;44.69
19508;BME280;40157;42.566;27.526;2023-02-19T09:15:56;101179.59;;;17.00;43.85
19508;BME280;40157;42.566;27.526;2023-02-19T09:17:57;101177.78;;;17.11;43.62
19508;BME280;40157;42.566;27.526;2023-02-19T09:19:57;101170.69;;;17.24;43.30
19508;BME280;40157;42.566;27.526;2023-02-19T09:21:58;101167.97;;;17.35;43.15
19508;BME280;40157;42.566;27.526;2023-02-19T09:23:58;101163.59;;;17.32;42.97
19508;BME280;40157;42.566;27.526;2023-02-19T09:25:59;101179.41;;;17.49;42.93
19508;BME280;40157;42.566;27.526;2023-02-19T09:28:00;101147.59;;;17.48;41.58
19508;BME280;40157;42.566;27.526;2023-02-19T09:30:00;101149.31;;;17.55;41.89
19508;BME280;40157;42.566;27.526;2023-02-19T09:32:01;101137.78;;;17.64;41.71
19508;BME280;40157;42.566;27.526;2023-02-19T09:34:01;101166.84;;;17.81;41.64
19508;BME280;40157;42.566;27.526;2023-02-19T09:36:02;101138.53;;;17.84;40.56
19508;BME280;40157;42.566;27.526;2023-02-19T09:38:03;101158.81;;;17.94;41.19
19508;BME280;40157;42.566;27.526;2023-02-19T09:40:04;101172.88;;;18.06;40.68
19508;BME280;40157;42.566;27.526;2023-02-19T09:44:13;101153.44;;;18.04;40.45
19508;BME280;40157;42.566;27.526;2023-02-19T09:48:27;101148.72;;;18.37;39.24
19508;BME280;40157;42.566;27.526;2023-02-19T09:50:38;101119.66;;;18.21;39.05
19508;BME280;40157;42.566;27.526;2023-02-19T09:52:39;101153.00;;;18.53;39.58
19508;BME280;40157;42.566;27.526;2023-02-19T09:54:42;101132.66;;;18.52;39.39
19508;BME280;40157;42.566;27.526;2023-02-19T09:56:44;101129.03;;;18.59;39.03
19508;BME280;40157;42.566;27.526;2023-02-19T09:58:50;101127.19;;;18.66;39.24
19508;BME280;40157;42.566;27.526;2023-02-19T10:00:53;101143.88;;;18.79;39.35
19508;BME280;40157;42.566;27.526;2023-02-19T10:03:13;101111.97;;;18.82;39.12
19508;BME280;40157;42.566;27.526;2023-02-19T10:05:16;101115.50;;;18.82;40.24
19508;BME280;40157;42.566;27.526;2023-02-19T10:07:22;101119.91;;;18.86;40.48
19508;BME280;40157;42.566;27.526;2023-02-19T10:09:25;101113.72;;;18.86;40.60
19508;BME280;40157;42.566;27.526;2023-02-19T10:11:26;101117.16;;;18.94;40.06
19508;BME280;40157;42.566;27.526;2023-02-19T10:13:33;101116.19;;;19.00;39.97
19508;BME280;40157;42.566;27.526;2023-02-19T10:15:40;101095.13;;;18.86;39.40
19508;BME280;40157;42.566;27.526;2023-02-19T10:17:44;101101.38;;;18.79;39.78
19508;BME280;40157;42.566;27.526;2023-02-19T10:19:44;101087.44;;;18.58;39.60
19508;BME280;40157;42.566;27.526;2023-02-19T10:21:45;101097.03;;;18.72;40.04
19508;BME280;40157;42.566;27.526;2023-02-19T10:23:49;101092.50;;;18.80;39.44
19508;BME280;40157;42.566;27.526;2023-02-19T10:25:57;101096.78;;;18.93;39.33
19508;BME280;40157;42.566;27.526;2023-02-19T10:27:59;101102.81;;;19.08;38.81
19508;BME280;40157;42.566;27.526;2023-02-19T10:30:00;101113.41;;;19.11;38.86
19508;BME280;40157;42.566;27.526;2023-02-19T10:32:19;101095.56;;;19.22;38.58
19508;BME280;40157;42.566;27.526;2023-02-19T10:34:23;101081.28;;;19.29;38.34
19508;BME280;40157;42.566;27.526;2023-02-19T10:36:40;101080.16;;;19.44;38.21
19508;BME280;40157;42.566;27.526;2023-02-19T10:38:46;101086.19;;;19.57;37.84
19508;BME280;40157;42.566;27.526;2023-02-19T10:40:47;101072.75;;;19.65;37.55
19508;BME280;40157;42.566;27.526;2023-02-19T10:42:49;101060.22;;;19.71;36.72
19508;BME280;40157;42.566;27.526;2023-02-19T10:44:57;101075.78;;;19.99;37.14
19508;BME280;40157;42.566;27.526;2023-02-19T10:47:01;101076.63;;;20.01;35.36
19508;BME280;40157;42.566;27.526;2023-02-19T10:49:04;101075.53;;;20.11;35.21
19508;BME280;40157;42.566;27.526;2023-02-19T10:51:08;101077.22;;;20.19;35.19
19508;BME280;40157;42.566;27.526;2023-02-19T10:53:20;101062.91;;;20.24;35.33
19508;BME280;40157;42.566;27.526;2023-02-19T10:55:31;101047.56;;;20.37;34.50
19508;BME280;40157;42.566;27.526;2023-02-19T10:57:33;101042.00;;;20.49;34.62
19508;BME280;40157;42.566;27.526;2023-02-19T10:59:34;101046.09;;;20.69;34.51